Time;durP1;ratioP1;P1;durP2;ratioP2;P2;SDS_P1;SDS_P2;PMS_P1;PMS_P2;Temp;Humidity;BMP_temperature;BMP_pressure;BME280_temperature;BME280_humidity;BME280_pressure;Samples;Min_cycle;Max_cycle;Signal;HPM_P1;HPM_P2
2022/07/20 00:01:16;;;;;;;4.70;2.05;;;;;;;;;;4993153;28;20261;-63
2022/07/20 00:03:45;;;;;;;5.30;2.53;;;;;;;;;;5006338;28;20041;-64
2022/07/20 00:06:12;;;;;;;3.75;2.20;;;;;;;;;;5009996;28;20308;-63
2022/07/20 00:11:23;;;;;;;5.47;2.60;;;;;;;;;;4990627;28;20061;-64
2022/07/20 00:13:51;;;;;;;10.00;2.90;;;;;;;;;;4988338;28;20046;-64
2022/07/20 00:16:18;;;;;;;7.93;2.05;;;;;;;;;;5009783;28;20046;-64
2022/07/20 00:18:47;;;;;;;6.05;2.03;;;;;;;;;;5006378;28;20061;-64
2022/07/20 00:21:14;;;;;;;4.22;2.50;;;;;;;;;;4992433;28;20054;-64
2022/07/20 00:23:41;;;;;;;4.35;2.28;;;;;;;;;;5003873;28;20042;-64
2022/07/20 00:26:08;;;;;;;4.35;2.20;;;;;;;;;;4993471;28;20053;-63
2022/07/20 00:28:35;;;;;;;3.90;2.10;;;;;;;;;;4993493;28;20046;-64
2022/07/20 00:31:02;;;;;;;3.40;2.03;;;;;;;;;;4990200;28;20041;-64
2022/07/20 00:33:28;;;;;;;6.95;2.20;;;;;;;;;;4993227;28;20041;-64
2022/07/20 00:35:56;;;;;;;4.25;2.38;;;;;;;;;;4986672;28;20038;-64
2022/07/20 00:38:24;;;;;;;5.05;2.03;;;;;;;;;;5010019;28;20089;-64
2022/07/20 00:40:51;;;;;;;4.45;2.22;;;;;;;;;;4973760;28;20105;-63
2022/07/20 00:43:17;;;;;;;4.75;2.33;;;;;;;;;;4974148;28;20105;-63
2022/07/20 00:45:44;;;;;;;4.22;2.30;;;;;;;;;;4985042;28;20062;-64
2022/07/20 00:48:10;;;;;;;3.85;2.38;;;;;;;;;;4976419;28;20062;-63
2022/07/20 00:50:37;;;;;;;3.90;2.13;;;;;;;;;;4978152;28;20055;-64
2022/07/20 00:53:05;;;;;;;5.28;2.40;;;;;;;;;;4973877;28;20056;-63
2022/07/20 00:55:32;;;;;;;;;;;;;;;;;;4975701;28;20061;-64
2022/07/20 00:57:59;;;;;;;4.00;2.22;;;;;;;;;;5008701;28;19937;-63
2022/07/20 01:00:25;;;;;;;5.85;2.15;;;;;;;;;;5002802;28;20057;-63
2022/07/20 01:02:52;;;;;;;4.85;2.00;;;;;;;;;;4989329;28;20058;-63
2022/07/20 01:05:18;;;;;;;4.45;2.20;;;;;;;;;;4976975;28;20093;-63
2022/07/20 01:07:46;;;;;;;3.90;2.00;;;;;;;;;;4971147;28;20093;-63
2022/07/20 01:10:14;;;;;;;8.55;2.83;;;;;;;;;;4978818;28;20051;-63
2022/07/20 01:12:44;;;;;;;5.10;2.25;;;;;;;;;;4984958;28;20065;-63
2022/07/20 01:15:11;;;;;;;7.13;2.65;;;;;;;;;;4989649;28;20061;-63
2022/07/20 01:17:38;;;;;;;8.40;2.83;;;;;;;;;;4983669;28;20058;-63
2022/07/20 01:20:05;;;;;;;8.43;2.80;;;;;;;;;;4988463;28;20062;-63
2022/07/20 01:22:33;;;;;;;6.45;2.80;;;;;;;;;;4999502;28;20057;-63
2022/07/20 01:25:00;;;;;;;4.20;2.15;;;;;;;;;;4989885;28;20057;-64
2022/07/20 01:27:28;;;;;;;3.85;2.28;;;;;;;;;;4984375;28;20062;-63
2022/07/20 01:29:54;;;;;;;5.30;2.20;;;;;;;;;;4987794;28;20046;-63
2022/07/20 01:32:21;;;;;;;8.57;3.00;;;;;;;;;;4989353;28;20050;-63
2022/07/20 01:34:47;;;;;;;4.57;2.10;;;;;;;;;;4981887;28;20066;-63
2022/07/20 01:37:14;;;;;;;4.65;2.08;;;;;;;;;;4988982;28;20084;-63
2022/07/20 01:39:42;;;;;;;6.45;2.60;;;;;;;;;;4984075;28;20054;-63
2022/07/20 01:42:08;;;;;;;6.20;2.30;;;;;;;;;;4985262;28;20069;-63
2022/07/20 01:44:35;;;;;;;12.95;3.17;;;;;;;;;;4982397;28;20191;-63
2022/07/20 01:47:01;;;;;;;4.30;2.35;;;;;;;;;;4989343;28;20054;-63
2022/07/20 01:49:28;;;;;;;3.85;2.25;;;;;;;;;;4988738;28;20065;-63
2022/07/20 01:51:55;;;;;;;4.32;2.33;;;;;;;;;;4983762;28;20061;-63
2022/07/20 01:54:21;;;;;;;5.82;1.90;;;;;;;;;;4988697;28;20090;-63
2022/07/20 01:56:49;;;;;;;3.55;2.10;;;;;;;;;;4982384;28;20046;-63
2022/07/20 01:59:16;;;;;;;3.78;2.03;;;;;;;;;;4988284;28;20065;-63
2022/07/20 02:01:43;;;;;;;3.38;2.10;;;;;;;;;;4980434;28;20054;-64
2022/07/20 02:04:09;;;;;;;3.35;1.88;;;;;;;;;;4967116;28;20058;-63
2022/07/20 02:06:36;;;;;;;5.60;2.58;;;;;;;;;;4964374;28;20050;-63
2022/07/20 02:09:02;;;;;;;4.72;2.25;;;;;;;;;;4962202;28;20039;-63
2022/07/20 02:11:29;;;;;;;6.07;3.10;;;;;;;;;;4965502;28;20055;-63
2022/07/20 02:13:57;;;;;;;3.90;2.13;;;;;;;;;;4961256;28;20055;-63
2022/07/20 02:16:24;;;;;;;;;;;;;;;;;;4958503;28;20110;-63
2022/07/20 02:18:51;;;;;;;4.53;2.17;;;;;;;;;;4954014;28;19961;-63
2022/07/20 02:21:19;;;;;;;7.65;2.70;;;;;;;;;;4968324;28;20055;-63
2022/07/20 02:23:45;;;;;;;6.35;2.35;;;;;;;;;;4961523;28;20062;-63
2022/07/20 02:26:12;;;;;;;8.23;3.10;;;;;;;;;;4968282;28;20055;-63
2022/07/20 02:28:39;;;;;;;4.85;2.42;;;;;;;;;;4967945;28;20133;-65
2022/07/20 02:31:07;;;;;;;8.90;2.72;;;;;;;;;;4962797;28;20077;-64
2022/07/20 02:33:33;;;;;;;;;;;;;;;;;;4961540;28;20051;-64
2022/07/20 02:36:00;;;;;;;5.25;2.47;;;;;;;;;;4957166;28;19926;-64
2022/07/20 02:38:27;;;;;;;6.30;2.30;;;;;;;;;;4969135;28;20097;-63
2022/07/20 02:40:54;;;;;;;4.40;2.35;;;;;;;;;;4962892;28;20063;-64
2022/07/20 02:43:22;;;;;;;6.00;3.20;;;;;;;;;;4969156;28;20061;-64
2022/07/20 02:45:48;;;;;;;4.65;2.45;;;;;;;;;;4965754;28;20055;-63
2022/07/20 02:48:16;;;;;;;4.28;2.22;;;;;;;;;;4966186;28;20051;-64
2022/07/20 02:50:43;;;;;;;;;;;;;;;;;;4969284;28;20051;-63
2022/07/20 02:53:11;;;;;;;4.65;2.08;;;;;;;;;;4961649;28;19926;-63
2022/07/20 02:55:37;;;;;;;4.70;2.08;;;;;;;;;;4968398;28;20054;-64
2022/07/20 02:58:04;;;;;;;4.15;2.05;;;;;;;;;;4963695;28;20051;-64
2022/07/20 03:00:31;;;;;;;9.13;3.05;;;;;;;;;;4968982;28;20059;-66
2022/07/20 03:02:57;;;;;;;5.13;2.13;;;;;;;;;;4968304;28;20066;-64
2022/07/20 03:05:25;;;;;;;6.75;2.42;;;;;;;;;;4987930;28;20050;-65
2022/07/20 03:07:54;;;;;;;;;;;;;;;;;;4987905;28;20050;-64
2022/07/20 03:10:20;;;;;;;3.80;1.80;;;;;;;;;;4998075;28;19973;-64
2022/07/20 03:12:47;;;;;;;10.82;3.40;;;;;;;;;;4987459;28;20066;-64
2022/07/20 03:15:13;;;;;;;12.30;2.92;;;;;;;;;;4979276;28;20090;-64
2022/07/20 03:17:43;;;;;;;5.80;2.78;;;;;;;;;;4987028;28;20046;-63
2022/07/20 03:20:11;;;;;;;6.38;2.22;;;;;;;;;;4975467;28;20047;-63
2022/07/20 03:22:39;;;;;;;5.88;2.60;;;;;;;;;;4971095;28;20051;-65
2022/07/20 03:25:06;;;;;;;11.27;3.08;;;;;;;;;;4970883;28;20100;-64
2022/07/20 03:27:32;;;;;;;4.00;2.25;;;;;;;;;;4991417;28;20046;-65
2022/07/20 03:29:59;;;;;;;6.68;2.22;;;;;;;;;;4984055;28;20054;-64
2022/07/20 03:32:26;;;;;;;4.05;2.22;;;;;;;;;;4972466;28;20039;-64
2022/07/20 03:34:52;;;;;;;7.35;2.20;;;;;;;;;;4987868;28;20050;-64
2022/07/20 03:37:19;;;;;;;6.35;2.10;;;;;;;;;;4990952;28;20066;-64
2022/07/20 03:39:47;;;;;;;9.85;2.95;;;;;;;;;;4992903;28;20105;-64
2022/07/20 03:42:14;;;;;;;5.30;2.53;;;;;;;;;;4985829;28;20061;-65
2022/07/20 03:44:40;;;;;;;13.30;3.63;;;;;;;;;;4991116;28;20073;-64
2022/07/20 03:47:07;;;;;;;6.03;2.45;;;;;;;;;;5001582;28;20058;-64
2022/07/20 03:49:34;;;;;;;8.38;3.42;;;;;;;;;;4965819;28;20104;-65
2022/07/20 03:52:00;;;;;;;9.02;4.10;;;;;;;;;;4966325;28;20066;-64
2022/07/20 03:54:27;;;;;;;12.98;4.38;;;;;;;;;;4971666;28;20062;-64
2022/07/20 03:56:55;;;;;;;7.22;3.28;;;;;;;;;;4965647;28;20113;-64
2022/07/20 03:59:21;;;;;;;;;;;;;;;;;;4971305;28;20058;-65
2022/07/20 04:01:48;;;;;;;9.60;3.55;;;;;;;;;;4972488;28;19931;-65
2022/07/20 04:04:15;;;;;;;7.13;3.05;;;;;;;;;;4989962;28;20050;-64
2022/07/20 04:06:41;;;;;;;9.57;3.13;;;;;;;;;;4996678;28;20078;-65
2022/07/20 04:09:08;;;;;;;5.80;2.97;;;;;;;;;;4986939;28;20086;-65
2022/07/20 04:11:35;;;;;;;9.13;4.15;;;;;;;;;;4967587;28;20069;-64
2022/07/20 04:14:03;;;;;;;23.85;6.38;;;;;;;;;;4990446;28;20054;-64
2022/07/20 04:16:30;;;;;;;7.00;2.50;;;;;;;;;;4986613;28;20050;-64
2022/07/20 04:18:57;;;;;;;7.72;2.90;;;;;;;;;;4987927;28;20070;-65
2022/07/20 04:21:23;;;;;;;9.18;3.55;;;;;;;;;;4990110;28;20054;-64
2022/07/20 04:23:50;;;;;;;17.85;5.63;;;;;;;;;;4967349;28;20082;-64
2022/07/20 04:26:16;;;;;;;8.50;3.67;;;;;;;;;;4986508;28;20062;-64
2022/07/20 04:28:43;;;;;;;12.05;5.10;;;;;;;;;;4996335;28;20050;-64
2022/07/20 04:31:11;;;;;;;14.40;6.00;;;;;;;;;;4989861;28;20054;-64
2022/07/20 04:33:37;;;;;;;21.52;8.98;;;;;;;;;;4983121;28;20054;-65
2022/07/20 04:36:04;;;;;;;18.70;9.15;;;;;;;;;;4989810;28;20066;-64
2022/07/20 04:38:31;;;;;;;9.80;3.95;;;;;;;;;;4974464;28;20059;-64
2022/07/20 04:40:58;;;;;;;13.18;5.13;;;;;;;;;;4970871;28;20062;-64
2022/07/20 04:43:24;;;;;;;17.63;7.28;;;;;;;;;;4965905;28;20062;-63
2022/07/20 04:45:51;;;;;;;10.90;3.92;;;;;;;;;;4976449;28;20046;-63
2022/07/20 04:48:20;;;;;;;13.55;6.20;;;;;;;;;;4978676;28;20046;-63
2022/07/20 04:50:47;;;;;;;13.18;5.15;;;;;;;;;;4981869;28;20054;-64
2022/07/20 04:53:13;;;;;;;16.75;5.93;;;;;;;;;;4976373;28;20203;-65
2022/07/20 04:55:40;;;;;;;22.75;8.68;;;;;;;;;;4983027;28;20104;-64
2022/07/20 04:58:09;;;;;;;23.52;11.40;;;;;;;;;;4984204;28;20054;-64
2022/07/20 05:00:35;;;;;;;17.33;8.30;;;;;;;;;;4983956;28;20055;-64
2022/07/20 05:03:02;;;;;;;32.95;13.50;;;;;;;;;;4976808;28;20090;-64
2022/07/20 05:05:30;;;;;;;31.95;13.70;;;;;;;;;;4973286;28;20150;-64
2022/07/20 05:07:56;;;;;;;14.13;7.43;;;;;;;;;;4980309;28;20055;-64
2022/07/20 05:10:23;;;;;;;26.90;12.93;;;;;;;;;;4976702;28;20058;-65
2022/07/20 05:12:50;;;;;;;17.67;7.05;;;;;;;;;;4983883;28;20150;-65
2022/07/20 05:15:16;;;;;;;29.40;13.50;;;;;;;;;;4976225;28;20050;-63
2022/07/20 05:17:43;;;;;;;20.33;7.72;;;;;;;;;;5003421;28;20056;-62
2022/07/20 05:20:10;;;;;;;14.68;7.25;;;;;;;;;;4979521;28;20054;-64
2022/07/20 05:22:39;;;;;;;14.52;6.85;;;;;;;;;;4976078;28;20059;-64
2022/07/20 05:25:06;;;;;;;28.60;13.95;;;;;;;;;;4983864;28;20054;-64
2022/07/20 05:27:34;;;;;;;17.73;8.40;;;;;;;;;;4971191;28;20098;-63
2022/07/20 05:30:00;;;;;;;15.02;6.60;;;;;;;;;;4970621;28;20059;-65
2022/07/20 05:32:27;;;;;;;13.55;6.97;;;;;;;;;;4991666;28;20080;-65
2022/07/20 05:34:54;;;;;;;33.65;15.85;;;;;;;;;;4989507;28;20058;-64
2022/07/20 05:37:22;;;;;;;19.02;9.98;;;;;;;;;;4984549;28;20101;-65
2022/07/20 05:39:50;;;;;;;18.70;9.00;;;;;;;;;;4990893;28;20046;-65
2022/07/20 05:42:17;;;;;;;21.17;11.18;;;;;;;;;;4990965;28;20054;-64
2022/07/20 05:44:43;;;;;;;27.20;12.85;;;;;;;;;;4984991;28;20050;-63
2022/07/20 05:47:10;;;;;;;48.10;17.77;;;;;;;;;;4990329;28;20054;-64
2022/07/20 05:49:40;;;;;;;29.80;16.17;;;;;;;;;;4985144;28;20047;-64
2022/07/20 05:52:06;;;;;;;36.78;16.77;;;;;;;;;;4989718;28;20097;-65
2022/07/20 05:54:33;;;;;;;23.38;13.05;;;;;;;;;;4985817;28;20070;-65
2022/07/20 05:57:01;;;;;;;15.88;8.82;;;;;;;;;;5007425;28;20053;-65
2022/07/20 05:59:29;;;;;;;35.83;17.35;;;;;;;;;;4988237;28;20055;-64
2022/07/20 06:01:56;;;;;;;13.25;6.95;;;;;;;;;;4989709;28;20051;-65
2022/07/20 06:04:22;;;;;;;27.45;12.68;;;;;;;;;;4985919;28;20054;-64
2022/07/20 06:06:50;;;;;;;37.08;13.75;;;;;;;;;;4968081;28;20257;-64
2022/07/20 06:09:23;;;;;;;42.97;19.30;;;;;;;;;;4977129;28;20043;-65
2022/07/20 06:11:50;;;;;;;27.58;12.20;;;;;;;;;;4985417;28;20046;-64
2022/07/20 06:14:18;;;;;;;23.77;12.57;;;;;;;;;;4990983;28;20046;-64
2022/07/20 06:16:44;;;;;;;18.55;9.35;;;;;;;;;;5002237;28;20058;-63
2022/07/20 06:19:17;;;;;;;46.13;19.15;;;;;;;;;;4990349;28;20050;-65
2022/07/20 06:21:44;;;;;;;47.35;19.00;;;;;;;;;;4986384;28;20062;-64
2022/07/20 06:24:10;;;;;;;41.78;19.52;;;;;;;;;;4989177;28;20050;-64
2022/07/20 06:26:37;;;;;;;17.42;10.07;;;;;;;;;;4990139;28;20060;-64
2022/07/20 06:29:05;;;;;;;25.30;13.10;;;;;;;;;;4984405;28;20061;-64
2022/07/20 06:31:33;;;;;;;32.83;15.85;;;;;;;;;;4990202;28;20054;-64
2022/07/20 06:33:59;;;;;;;30.38;15.90;;;;;;;;;;4985556;28;20050;-65
2022/07/20 06:36:26;;;;;;;30.65;14.80;;;;;;;;;;4978301;28;20097;-63
2022/07/20 06:38:54;;;;;;;27.73;13.32;;;;;;;;;;4972738;28;20086;-64
2022/07/20 06:41:21;;;;;;;29.73;13.82;;;;;;;;;;4990925;28;20050;-64
2022/07/20 06:43:47;;;;;;;29.58;14.50;;;;;;;;;;4988564;28;20073;-64
2022/07/20 06:46:14;;;;;;;23.17;11.40;;;;;;;;;;4988273;28;20054;-65
2022/07/20 06:48:42;;;;;;;31.55;14.88;;;;;;;;;;4989568;28;20061;-64
2022/07/20 06:51:08;;;;;;;27.08;12.90;;;;;;;;;;4974031;28;20106;-64
2022/07/20 06:53:35;;;;;;;25.50;11.25;;;;;;;;;;4971073;28;20054;-63
2022/07/20 06:56:01;;;;;;;19.95;11.25;;;;;;;;;;4976223;28;20054;-64
2022/07/20 06:58:28;;;;;;;25.83;12.98;;;;;;;;;;4980904;28;20105;-65
2022/07/20 07:00:55;;;;;;;20.83;11.77;;;;;;;;;;4974278;28;20061;-64
2022/07/20 07:03:22;;;;;;;23.70;12.45;;;;;;;;;;4992747;28;20109;-64
2022/07/20 07:05:50;;;;;;;26.85;11.68;;;;;;;;;;4994924;28;20180;-64
2022/07/20 07:10:47;;;;;;;24.88;12.10;;;;;;;;;;5010889;28;19929;-64
2022/07/20 07:13:13;;;;;;;23.33;11.77;;;;;;;;;;4987260;28;20061;-63
2022/07/20 07:15:40;;;;;;;17.30;9.85;;;;;;;;;;5010513;28;20054;-64
2022/07/20 07:18:08;;;;;;;20.10;10.60;;;;;;;;;;4988155;28;20050;-63
2022/07/20 07:20:34;;;;;;;23.20;10.60;;;;;;;;;;4994611;28;20070;-65
2022/07/20 07:23:02;;;;;;;21.90;11.18;;;;;;;;;;5006484;28;20055;-63
2022/07/20 07:25:29;;;;;;;22.73;10.65;;;;;;;;;;4975266;28;20054;-64
2022/07/20 07:27:58;;;;;;;17.85;10.13;;;;;;;;;;4973894;28;20058;-64
2022/07/20 07:30:25;;;;;;;27.63;11.55;;;;;;;;;;4968878;28;20051;-65
2022/07/20 07:32:51;;;;;;;27.20;10.75;;;;;;;;;;4991240;28;20081;-64
2022/07/20 07:35:18;;;;;;;22.23;9.20;;;;;;;;;;4973242;28;20050;-63
2022/07/20 07:37:46;;;;;;;22.08;9.55;;;;;;;;;;4973957;28;20130;-64
2022/07/20 07:40:14;;;;;;;22.33;8.52;;;;;;;;;;4968836;28;20058;-63
2022/07/20 07:42:40;;;;;;;;;;;;;;;;;;4974447;28;20047;-65
2022/07/20 07:45:08;;;;;;;20.35;8.80;;;;;;;;;;4981796;28;19929;-64
2022/07/20 07:47:37;;;;;;;21.55;9.23;;;;;;;;;;4993307;28;20062;-63
2022/07/20 07:50:05;;;;;;;23.20;9.95;;;;;;;;;;4984626;28;20057;-64
2022/07/20 07:52:31;;;;;;;19.73;8.40;;;;;;;;;;4973082;28;20054;-64
2022/07/20 07:54:58;;;;;;;17.98;8.77;;;;;;;;;;4974488;28;20054;-64
2022/07/20 07:57:37;;;;;;;22.35;8.75;;;;;;;;;;4993105;28;20078;-64
2022/07/20 08:00:05;;;;;;;20.00;8.20;;;;;;;;;;4986110;28;20097;-64
2022/07/20 08:02:31;;;;;;;16.08;8.10;;;;;;;;;;4993903;28;20054;-63
2022/07/20 08:04:58;;;;;;;14.98;7.55;;;;;;;;;;4982453;28;20054;-64
2022/07/20 08:07:25;;;;;;;18.17;7.35;;;;;;;;;;4993815;28;20061;-65
2022/07/20 08:09:51;;;;;;;16.35;8.10;;;;;;;;;;4992276;28;20136;-64
2022/07/20 08:12:18;;;;;;;14.15;6.68;;;;;;;;;;4993625;28;20050;-65
2022/07/20 08:14:46;;;;;;;16.88;7.60;;;;;;;;;;4996284;28;20046;-65
2022/07/20 08:17:13;;;;;;;15.88;7.25;;;;;;;;;;4991764;28;20053;-64
2022/07/20 08:19:39;;;;;;;15.85;7.68;;;;;;;;;;4994811;28;20045;-65
2022/07/20 08:22:06;;;;;;;16.73;7.80;;;;;;;;;;4990893;28;20046;-65
2022/07/20 08:24:32;;;;;;;15.30;7.57;;;;;;;;;;5013366;28;20064;-65
2022/07/20 08:26:59;;;;;;;16.13;7.57;;;;;;;;;;4992659;28;20060;-64
2022/07/20 08:29:27;;;;;;;17.60;7.57;;;;;;;;;;4993643;28;20046;-64
2022/07/20 08:31:55;;;;;;;17.85;7.97;;;;;;;;;;4996446;28;20038;-64
2022/07/20 08:34:21;;;;;;;16.50;8.38;;;;;;;;;;4991056;28;20042;-64
2022/07/20 08:36:48;;;;;;;25.38;7.75;;;;;;;;;;5012243;28;20052;-64
2022/07/20 08:39:25;;;;;;;16.42;7.03;;;;;;;;;;4990568;28;20046;-64
2022/07/20 08:41:51;;;;;;;15.48;7.45;;;;;;;;;;4995633;28;20046;-64
2022/07/20 08:44:18;;;;;;;16.05;7.13;;;;;;;;;;4990686;28;20058;-65
2022/07/20 08:46:45;;;;;;;20.50;7.80;;;;;;;;;;4995625;28;20144;-64
2022/07/20 08:49:14;;;;;;;20.77;7.60;;;;;;;;;;5009115;28;20054;-64
2022/07/20 08:51:41;;;;;;;14.65;6.93;;;;;;;;;;4994039;28;20061;-63
2022/07/20 08:54:08;;;;;;;17.45;7.28;;;;;;;;;;4994296;28;20054;-64
2022/07/20 08:56:35;;;;;;;15.70;6.95;;;;;;;;;;4991095;28;20064;-64
2022/07/20 08:59:21;;;;;;;15.82;6.60;;;;;;;;;;4996268;28;20073;-65
2022/07/20 09:01:58;;;;;;;11.90;6.43;;;;;;;;;;4990334;28;20069;-64
2022/07/20 09:04:26;;;;;;;17.63;6.85;;;;;;;;;;4987281;28;20054;-65
2022/07/20 09:06:52;;;;;;;14.55;6.50;;;;;;;;;;4987134;28;20058;-64
2022/07/20 09:09:22;;;;;;;14.20;6.55;;;;;;;;;;4991431;28;20531;-64
2022/07/20 09:11:49;;;;;;;15.40;6.50;;;;;;;;;;4988697;28;20051;-63
2022/07/20 09:14:35;;;;;;;21.75;6.95;;;;;;;;;;4990121;28;20046;-65
2022/07/20 09:17:14;;;;;;;21.80;6.25;;;;;;;;;;4992140;28;20046;-64
2022/07/20 09:19:55;;;;;;;11.40;6.13;;;;;;;;;;4989268;28;20047;-64
2022/07/20 09:22:29;;;;;;;15.32;6.03;;;;;;;;;;5008523;28;20225;-65
2022/07/20 09:25:05;;;;;;;16.50;6.10;;;;;;;;;;4987134;28;20057;-64
2022/07/20 09:27:33;;;;;;;18.75;6.35;;;;;;;;;;5129067;23;20033;-64
2022/07/20 09:30:04;;;;;;;17.25;6.25;;;;;;;;;;4982406;28;20054;-65
2022/07/20 09:32:32;;;;;;;14.85;7.05;;;;;;;;;;4991988;28;20088;-64
2022/07/20 09:35:02;;;;;;;12.90;6.10;;;;;;;;;;4975063;28;20057;-64
2022/07/20 09:37:38;;;;;;;13.43;6.13;;;;;;;;;;4992407;28;20085;-64
2022/07/20 09:40:05;;;;;;;15.00;5.88;;;;;;;;;;4970967;28;20156;-64
2022/07/20 09:42:39;;;;;;;13.77;6.38;;;;;;;;;;5006667;28;20100;-64
2022/07/20 09:45:18;;;;;;;13.85;5.35;;;;;;;;;;4991960;28;20057;-64
2022/07/20 09:48:00;;;;;;;12.73;6.25;;;;;;;;;;4988305;28;20142;-64
2022/07/20 09:50:32;;;;;;;13.70;5.95;;;;;;;;;;4992041;28;20050;-64
2022/07/20 09:52:58;;;;;;;13.93;6.30;;;;;;;;;;4985691;28;20132;-65
2022/07/20 09:55:26;;;;;;;12.15;6.20;;;;;;;;;;4991572;28;20153;-64
2022/07/20 09:57:53;;;;;;;11.10;5.73;;;;;;;;;;4982387;28;20066;-64
2022/07/20 10:00:20;;;;;;;13.85;5.95;;;;;;;;;;4988716;28;20133;-65
2022/07/20 10:02:47;;;;;;;13.05;5.63;;;;;;;;;;4972465;28;20064;-64
2022/07/20 10:05:15;;;;;;;15.75;6.05;;;;;;;;;;4986048;28;20058;-63
2022/07/20 10:07:44;;;;;;;13.25;5.70;;;;;;;;;;4989343;28;20046;-65
2022/07/20 10:10:11;;;;;;;13.75;5.72;;;;;;;;;;4986114;28;20085;-64
2022/07/20 10:12:38;;;;;;;12.57;6.15;;;;;;;;;;4991113;28;20104;-63
2022/07/20 10:15:05;;;;;;;14.07;5.30;;;;;;;;;;4985139;28;20061;-64
2022/07/20 10:17:33;;;;;;;11.45;5.10;;;;;;;;;;4990817;28;20338;-64
2022/07/20 10:20:00;;;;;;;17.45;6.93;;;;;;;;;;4984521;28;20058;-64
2022/07/20 10:22:27;;;;;;;17.42;6.63;;;;;;;;;;4991559;28;20073;-64
2022/07/20 10:25:08;;;;;;;13.27;5.82;;;;;;;;;;4986281;28;20054;-64
2022/07/20 10:27:36;;;;;;;9.95;5.30;;;;;;;;;;4971267;28;20054;-64
2022/07/20 10:30:15;;;;;;;13.68;5.65;;;;;;;;;;4970185;28;20058;-64
2022/07/20 10:32:51;;;;;;;14.43;5.53;;;;;;;;;;4986348;28;20046;-64
2022/07/20 10:35:25;;;;;;;12.02;4.93;;;;;;;;;;5008041;28;20050;-64
2022/07/20 10:37:53;;;;;;;8.13;4.45;;;;;;;;;;4986171;28;20061;-64
2022/07/20 10:40:20;;;;;;;10.55;4.50;;;;;;;;;;4991075;28;20115;-64
2022/07/20 10:42:49;;;;;;;9.77;5.05;;;;;;;;;;4984873;28;20096;-64
2022/07/20 10:45:34;;;;;;;8.50;4.90;;;;;;;;;;4991044;28;20046;-64
2022/07/20 10:48:04;;;;;;;11.27;4.80;;;;;;;;;;4984707;28;20042;-64
2022/07/20 10:50:31;;;;;;;11.95;4.72;;;;;;;;;;4991362;28;20112;-65
2022/07/20 10:52:59;;;;;;;9.82;5.10;;;;;;;;;;4984918;28;20068;-64
2022/07/20 10:55:44;;;;;;;10.43;4.75;;;;;;;;;;4990365;28;20054;-64
2022/07/20 10:58:13;;;;;;;11.38;5.32;;;;;;;;;;4988731;28;20112;-64
2022/07/20 11:00:40;;;;;;;8.75;4.25;;;;;;;;;;4986815;28;20053;-64
2022/07/20 11:03:20;;;;;;;9.85;4.68;;;;;;;;;;4990598;28;20070;-64
2022/07/20 11:05:48;;;;;;;9.48;4.47;;;;;;;;;;4992115;28;20069;-64
2022/07/20 11:08:14;;;;;;;12.10;5.43;;;;;;;;;;5007660;28;20119;-64
2022/07/20 11:10:42;;;;;;;9.73;5.00;;;;;;;;;;4983513;28;20070;-64
2022/07/20 11:13:09;;;;;;;10.23;5.35;;;;;;;;;;4991023;28;20053;-64
2022/07/20 11:15:42;;;;;;;11.23;4.60;;;;;;;;;;4984216;28;20058;-64
2022/07/20 11:18:09;;;;;;;14.13;4.75;;;;;;;;;;4990531;28;20304;-64
2022/07/20 11:20:35;;;;;;;10.17;4.23;;;;;;;;;;4985556;28;20124;-64
2022/07/20 11:23:03;;;;;;;15.15;4.90;;;;;;;;;;4990541;28;20052;-64
2022/07/20 11:25:44;;;;;;;9.60;4.60;;;;;;;;;;4990623;28;20054;-64
2022/07/20 11:28:12;;;;;;;10.68;4.15;;;;;;;;;;4983455;28;20042;-64
2022/07/20 11:30:38;;;;;;;9.13;3.97;;;;;;;;;;4987661;28;20161;-64
2022/07/20 11:33:06;;;;;;;8.05;3.80;;;;;;;;;;4975866;28;20124;-64
2022/07/20 11:35:33;;;;;;;;;;;;;;;;;;4966901;28;20062;-64
2022/07/20 11:37:59;;;;;;;9.32;3.30;;;;;;;;;;4968003;28;19926;-64
2022/07/20 11:40:26;;;;;;;9.65;4.50;;;;;;;;;;4981887;28;20043;-64
2022/07/20 11:43:09;;;;;;;8.95;4.28;;;;;;;;;;4967548;28;20043;-65
2022/07/20 11:45:36;;;;;;;9.48;4.07;;;;;;;;;;4957449;28;20054;-64
2022/07/20 11:48:03;;;;;;;8.02;4.00;;;;;;;;;;4971586;28;20094;-64
2022/07/20 11:50:35;;;;;;;10.60;3.80;;;;;;;;;;4983092;28;20077;-64
2022/07/20 11:53:01;;;;;;;8.70;4.70;;;;;;;;;;5007495;28;20047;-64
2022/07/20 11:55:35;;;;;;;9.13;4.18;;;;;;;;;;4972821;28;20059;-64
2022/07/20 11:58:01;;;;;;;9.73;4.18;;;;;;;;;;4970953;28;20058;-64
2022/07/20 12:00:28;;;;;;;9.25;4.28;;;;;;;;;;4963122;28;20112;-64
2022/07/20 12:02:55;;;;;;;11.55;4.30;;;;;;;;;;4990044;28;20120;-64
2022/07/20 12:05:22;;;;;;;8.25;3.60;;;;;;;;;;4984242;28;20067;-64
2022/07/20 12:08:09;;;;;;;10.23;3.97;;;;;;;;;;4969992;28;20058;-64
2022/07/20 12:10:36;;;;;;;9.45;3.75;;;;;;;;;;4970940;28;20062;-65
2022/07/20 12:13:03;;;;;;;7.07;3.80;;;;;;;;;;4969191;28;20058;-64
2022/07/20 12:15:29;;;;;;;12.10;4.25;;;;;;;;;;4976247;28;20070;-65
2022/07/20 12:17:57;;;;;;;9.05;4.15;;;;;;;;;;4981036;28;20050;-65
2022/07/20 12:20:24;;;;;;;8.48;3.97;;;;;;;;;;4977838;28;20054;-65
2022/07/20 12:22:53;;;;;;;10.25;4.45;;;;;;;;;;4976723;28;20045;-65
2022/07/20 12:25:20;;;;;;;8.32;3.80;;;;;;;;;;4970641;28;20054;-66
2022/07/20 12:27:47;;;;;;;6.97;3.88;;;;;;;;;;4973767;28;20074;-64
2022/07/20 12:30:25;;;;;;;7.97;3.95;;;;;;;;;;5012981;28;20102;-64
2022/07/20 12:33:02;;;;;;;8.57;4.00;;;;;;;;;;5001906;28;20042;-65
2022/07/20 12:35:29;;;;;;;8.93;4.03;;;;;;;;;;4992789;28;20046;-65
2022/07/20 12:37:57;;;;;;;11.60;4.18;;;;;;;;;;4987051;28;20053;-65
2022/07/20 12:40:38;;;;;;;9.02;3.75;;;;;;;;;;4992977;28;20072;-65
2022/07/20 12:43:05;;;;;;;7.93;3.67;;;;;;;;;;4984952;28;20056;-65
2022/07/20 12:45:32;;;;;;;8.52;3.80;;;;;;;;;;4989476;28;20058;-65
2022/07/20 12:47:59;;;;;;;9.85;4.07;;;;;;;;;;4984992;28;20097;-65
2022/07/20 12:50:25;;;;;;;10.25;4.03;;;;;;;;;;4993103;28;20133;-65
2022/07/20 12:52:52;;;;;;;7.72;4.20;;;;;;;;;;4991237;28;20050;-65
2022/07/20 12:55:20;;;;;;;12.20;4.15;;;;;;;;;;4986681;28;20112;-65
2022/07/20 12:57:46;;;;;;;;;;;;;;;;;;4993161;28;20096;-65
2022/07/20 13:00:13;;;;;;;11.45;3.75;;;;;;;;;;4987554;28;19936;-65
2022/07/20 13:02:39;;;;;;;9.68;4.05;;;;;;;;;;4992904;28;20069;-65
2022/07/20 13:05:08;;;;;;;7.85;3.80;;;;;;;;;;4986594;28;20046;-65
2022/07/20 13:07:35;;;;;;;7.28;3.85;;;;;;;;;;4993125;28;20116;-65
2022/07/20 13:10:01;;;;;;;9.70;3.60;;;;;;;;;;4995984;28;20042;-65
2022/07/20 13:12:29;;;;;;;8.45;3.58;;;;;;;;;;4990057;28;20293;-65
2022/07/20 13:14:56;;;;;;;9.20;3.90;;;;;;;;;;4984094;28;20183;-65
2022/07/20 13:17:23;;;;;;;10.60;3.63;;;;;;;;;;4989129;28;20077;-65
2022/07/20 13:19:49;;;;;;;9.07;3.90;;;;;;;;;;4977978;28;20058;-65
2022/07/20 13:22:15;;;;;;;9.68;4.32;;;;;;;;;;5012385;28;20151;-65
2022/07/20 13:24:42;;;;;;;11.73;4.13;;;;;;;;;;5001942;28;20145;-65
2022/07/20 13:27:09;;;;;;;8.73;3.80;;;;;;;;;;4992486;28;20062;-64
2022/07/20 13:29:36;;;;;;;6.72;3.22;;;;;;;;;;4984576;28;20051;-65
2022/07/20 13:32:03;;;;;;;;;;;;;;;;;;5008502;28;20061;-64
2022/07/20 13:34:30;;;;;;;7.83;3.23;;;;;;;;;;5008118;28;19925;-65
2022/07/20 13:36:56;;;;;;;7.18;3.50;;;;;;;;;;4976017;28;20104;-65
2022/07/20 13:39:23;;;;;;;8.82;3.53;;;;;;;;;;4988833;28;20059;-65
2022/07/20 13:41:49;;;;;;;9.00;3.55;;;;;;;;;;4969614;28;20054;-65
2022/07/20 13:44:16;;;;;;;8.65;3.70;;;;;;;;;;4969343;28;20065;-65
2022/07/20 13:46:44;;;;;;;7.60;3.60;;;;;;;;;;4977199;28;20137;-66
2022/07/20 13:49:10;;;;;;;;;;;;;;;;;;4989048;28;20054;-65
2022/07/20 13:51:36;;;;;;;7.72;3.33;;;;;;;;;;4973846;28;19933;-64
2022/07/20 13:54:03;;;;;;;7.95;3.75;;;;;;;;;;4969398;28;20066;-65
2022/07/20 13:56:31;;;;;;;9.88;3.78;;;;;;;;;;4963951;28;20066;-64
2022/07/20 13:58:58;;;;;;;8.13;3.85;;;;;;;;;;4969285;28;20105;-64
2022/07/20 14:01:25;;;;;;;8.00;3.27;;;;;;;;;;4964994;28;20047;-64
2022/07/20 14:03:53;;;;;;;7.00;3.08;;;;;;;;;;4969315;28;20055;-65
2022/07/20 14:06:21;;;;;;;6.07;3.28;;;;;;;;;;4968175;28;20146;-65
2022/07/20 14:08:49;;;;;;;8.68;3.50;;;;;;;;;;5007968;28;20077;-64
2022/07/20 14:11:15;;;;;;;;;;;;;;;;;;5001312;28;20078;-65
2022/07/20 14:13:42;;;;;;;6.60;3.47;;;;;;;;;;4988345;28;19976;-65
2022/07/20 14:16:08;;;;;;;10.25;4.10;;;;;;;;;;4988162;28;20054;-65
2022/07/20 14:18:36;;;;;;;6.85;3.70;;;;;;;;;;4982839;28;20097;-65
2022/07/20 14:21:04;;;;;;;10.13;3.95;;;;;;;;;;4988557;28;20100;-65
2022/07/20 14:23:30;;;;;;;7.88;4.10;;;;;;;;;;4981693;28;20057;-65
2022/07/20 14:25:57;;;;;;;10.45;4.22;;;;;;;;;;4988311;28;20137;-64
2022/07/20 14:28:23;;;;;;;8.43;3.53;;;;;;;;;;4982544;28;20149;-65
2022/07/20 14:30:50;;;;;;;9.10;3.63;;;;;;;;;;4987331;28;20049;-64
2022/07/20 14:33:17;;;;;;;7.53;3.60;;;;;;;;;;4983875;28;20096;-64
2022/07/20 14:35:43;;;;;;;8.35;3.83;;;;;;;;;;5007713;28;20114;-64
2022/07/20 14:38:11;;;;;;;10.50;4.32;;;;;;;;;;4993132;28;20050;-65
2022/07/20 14:40:38;;;;;;;11.65;3.72;;;;;;;;;;4987878;28;20128;-64
2022/07/20 14:43:04;;;;;;;8.10;4.20;;;;;;;;;;4977618;28;20105;-65
2022/07/20 14:45:33;;;;;;;7.38;3.42;;;;;;;;;;4968694;28;20057;-65
2022/07/20 14:48:00;;;;;;;7.82;3.45;;;;;;;;;;4966882;28;20056;-65